sensor_id;sensor_type;location;lat;lon;timestamp;P1;durP1;ratioP1;P2;durP2;ratioP2
78796;SDS011;68145;52.514;13.460;2023-04-01T00:00:21;7.65;;;4.80;;
78796;SDS011;68145;52.514;13.460;2023-04-01T00:02:47;8.05;;;4.25;;
78796;SDS011;68145;52.514;13.460;2023-04-01T00:05:13;5.68;;;4.00;;
78796;SDS011;68145;52.514;13.460;2023-04-01T00:07:41;6.78;;;3.90;;
78796;SDS011;68145;52.514;13.460;2023-04-01T00:10:09;10.35;;;5.38;;
78796;SDS011;68145;52.514;13.460;2023-04-01T00:12:35;9.52;;;6.13;;
78796;SDS011;68145;52.514;13.460;2023-04-01T00:15:02;6.53;;;3.85;;
78796;SDS011;68145;52.514;13.460;2023-04-01T00:17:29;5.28;;;3.22;;
78796;SDS011;68145;52.514;13.460;2023-04-01T00:19:55;7.85;;;3.47;;
78796;SDS011;68145;52.514;13.460;2023-04-01T00:22:22;6.40;;;4.20;;
78796;SDS011;68145;52.514;13.460;2023-04-01T00:24:48;6.97;;;3.70;;
78796;SDS011;68145;52.514;13.460;2023-04-01T00:27:14;5.75;;;4.05;;
78796;SDS011;68145;52.514;13.460;2023-04-01T00:29:44;6.88;;;3.95;;
78796;SDS011;68145;52.514;13.460;2023-04-01T00:32:10;10.80;;;7.18;;
78796;SDS011;68145;52.514;13.460;2023-04-01T00:34:36;28.30;;;14.55;;
78796;SDS011;68145;52.514;13.460;2023-04-01T00:37:03;17.20;;;10.68;;
78796;SDS011;68145;52.514;13.460;2023-04-01T00:39:29;14.80;;;7.00;;
78796;SDS011;68145;52.514;13.460;2023-04-01T00:41:56;32.05;;;22.08;;
78796;SDS011;68145;52.514;13.460;2023-04-01T00:44:26;11.13;;;6.85;;
78796;SDS011;68145;52.514;13.460;2023-04-01T00:46:53;31.60;;;18.67;;
78796;SDS011;68145;52.514;13.460;2023-04-01T00:49:20;17.35;;;11.35;;
78796;SDS011;68145;52.514;13.460;2023-04-01T00:51:48;11.55;;;6.05;;
78796;SDS011;68145;52.514;13.460;2023-04-01T00:54:15;21.67;;;10.50;;
78796;SDS011;68145;52.514;13.460;2023-04-01T00:56:46;21.00;;;10.65;;
78796;SDS011;68145;52.514;13.460;2023-04-01T00:59:16;20.25;;;11.95;;
78796;SDS011;68145;52.514;13.460;2023-04-01T01:01:44;7.93;;;3.47;;
78796;SDS011;68145;52.514;13.460;2023-04-01T01:07:08;6.22;;;3.10;;
78796;SDS011;68145;52.514;13.460;2023-04-01T01:18:19;5.82;;;3.00;;
78796;SDS011;68145;52.514;13.460;2023-04-01T01:23:35;5.38;;;3.17;;
78796;SDS011;68145;52.514;13.460;2023-04-01T01:29:09;7.38;;;3.70;;
78796;SDS011;68145;52.514;13.460;2023-04-01T01:31:37;5.28;;;3.20;;
78796;SDS011;68145;52.514;13.460;2023-04-01T01:34:10;5.32;;;3.17;;
78796;SDS011;68145;52.514;13.460;2023-04-01T01:36:37;6.65;;;3.60;;
78796;SDS011;68145;52.514;13.460;2023-04-01T01:39:04;8.63;;;5.40;;
78796;SDS011;68145;52.514;13.460;2023-04-01T01:41:31;10.95;;;4.80;;
78796;SDS011;68145;52.514;13.460;2023-04-01T01:43:58;12.00;;;4.80;;
78796;SDS011;68145;52.514;13.460;2023-04-01T01:46:26;9.05;;;4.30;;
78796;SDS011;68145;52.514;13.460;2023-04-01T01:48:53;9.23;;;3.60;;
78796;SDS011;68145;52.514;13.460;2023-04-01T01:51:20;5.35;;;3.40;;
78796;SDS011;68145;52.514;13.460;2023-04-01T01:53:47;6.22;;;3.65;;
78796;SDS011;68145;52.514;13.460;2023-04-01T01:56:13;10.38;;;6.22;;
78796;SDS011;68145;52.514;13.460;2023-04-01T01:58:40;5.60;;;3.38;;
78796;SDS011;68145;52.514;13.460;2023-04-01T02:01:12;6.95;;;4.25;;
78796;SDS011;68145;52.514;13.460;2023-04-01T02:03:39;14.57;;;8.70;;
78796;SDS011;68145;52.514;13.460;2023-04-01T02:06:07;8.05;;;4.20;;
78796;SDS011;68145;52.514;13.460;2023-04-01T02:11:05;6.45;;;3.70;;
78796;SDS011;68145;52.514;13.460;2023-04-01T02:14:15;6.60;;;3.53;;
78796;SDS011;68145;52.514;13.460;2023-04-01T02:16:32;6.85;;;4.25;;
78796;SDS011;68145;52.514;13.460;2023-04-01T02:18:59;10.05;;;3.40;;
78796;SDS011;68145;52.514;13.460;2023-04-01T02:21:27;9.13;;;3.28;;
78796;SDS011;68145;52.514;13.460;2023-04-01T02:23:56;6.20;;;4.10;;
78796;SDS011;68145;52.514;13.460;2023-04-01T02:26:23;4.68;;;2.85;;
78796;SDS011;68145;52.514;13.460;2023-04-01T02:28:51;5.03;;;2.63;;
78796;SDS011;68145;52.514;13.460;2023-04-01T02:31:18;7.60;;;3.92;;
78796;SDS011;68145;52.514;13.460;2023-04-01T02:33:44;5.55;;;2.70;;
78796;SDS011;68145;52.514;13.460;2023-04-01T02:36:14;3.60;;;2.65;;
78796;SDS011;68145;52.514;13.460;2023-04-01T02:38:41;5.40;;;2.92;;
78796;SDS011;68145;52.514;13.460;2023-04-01T02:41:08;5.20;;;3.03;;
78796;SDS011;68145;52.514;13.460;2023-04-01T02:43:34;5.65;;;3.13;;
78796;SDS011;68145;52.514;13.460;2023-04-01T02:46:00;8.63;;;4.25;;
78796;SDS011;68145;52.514;13.460;2023-04-01T02:48:27;9.50;;;3.70;;
78796;SDS011;68145;52.514;13.460;2023-04-01T02:50:53;4.55;;;2.58;;
78796;SDS011;68145;52.514;13.460;2023-04-01T02:53:19;5.43;;;2.60;;
78796;SDS011;68145;52.514;13.460;2023-04-01T02:55:45;7.25;;;3.60;;
78796;SDS011;68145;52.514;13.460;2023-04-01T02:58:11;5.28;;;2.83;;
78796;SDS011;68145;52.514;13.460;2023-04-01T03:00:37;5.13;;;2.53;;
78796;SDS011;68145;52.514;13.460;2023-04-01T03:03:03;5.78;;;2.75;;
78796;SDS011;68145;52.514;13.460;2023-04-01T03:05:30;4.47;;;2.80;;
78796;SDS011;68145;52.514;13.460;2023-04-01T03:07:56;3.58;;;2.15;;
78796;SDS011;68145;52.514;13.460;2023-04-01T03:10:22;5.75;;;2.45;;
78796;SDS011;68145;52.514;13.460;2023-04-01T03:12:48;7.63;;;2.90;;
78796;SDS011;68145;52.514;13.460;2023-04-01T03:15:14;4.68;;;2.70;;
78796;SDS011;68145;52.514;13.460;2023-04-01T03:17:41;8.60;;;2.88;;
78796;SDS011;68145;52.514;13.460;2023-04-01T03:20:08;6.47;;;2.60;;
78796;SDS011;68145;52.514;13.460;2023-04-01T03:22:34;4.68;;;2.80;;
78796;SDS011;68145;52.514;13.460;2023-04-01T03:25:01;4.03;;;2.90;;
78796;SDS011;68145;52.514;13.460;2023-04-01T03:27:28;5.88;;;2.67;;
78796;SDS011;68145;52.514;13.460;2023-04-01T03:29:54;7.25;;;2.53;;
78796;SDS011;68145;52.514;13.460;2023-04-01T03:32:20;5.75;;;2.58;;
78796;SDS011;68145;52.514;13.460;2023-04-01T03:34:46;8.18;;;3.47;;
78796;SDS011;68145;52.514;13.460;2023-04-01T03:37:12;6.18;;;2.92;;
78796;SDS011;68145;52.514;13.460;2023-04-01T03:39:39;7.57;;;2.70;;
78796;SDS011;68145;52.514;13.460;2023-04-01T03:42:05;7.07;;;3.13;;
78796;SDS011;68145;52.514;13.460;2023-04-01T03:44:32;4.65;;;2.85;;
78796;SDS011;68145;52.514;13.460;2023-04-01T03:46:58;7.65;;;3.10;;
78796;SDS011;68145;52.514;13.460;2023-04-01T03:49:24;3.90;;;2.35;;
78796;SDS011;68145;52.514;13.460;2023-04-01T03:51:50;4.88;;;2.65;;
78796;SDS011;68145;52.514;13.460;2023-04-01T03:54:16;6.85;;;2.58;;
78796;SDS011;68145;52.514;13.460;2023-04-01T03:56:44;9.02;;;3.17;;
78796;SDS011;68145;52.514;13.460;2023-04-01T03:59:10;6.53;;;2.88;;
78796;SDS011;68145;52.514;13.460;2023-04-01T04:01:36;6.20;;;2.83;;
78796;SDS011;68145;52.514;13.460;2023-04-01T04:04:02;4.13;;;3.03;;
78796;SDS011;68145;52.514;13.460;2023-04-01T04:06:28;6.97;;;3.05;;
78796;SDS011;68145;52.514;13.460;2023-04-01T04:08:54;6.93;;;3.60;;
78796;SDS011;68145;52.514;13.460;2023-04-01T04:11:20;6.90;;;2.90;;
78796;SDS011;68145;52.514;13.460;2023-04-01T04:13:47;4.05;;;2.92;;
78796;SDS011;68145;52.514;13.460;2023-04-01T04:16:14;6.90;;;3.40;;
78796;SDS011;68145;52.514;13.460;2023-04-01T04:18:40;3.88;;;2.70;;
78796;SDS011;68145;52.514;13.460;2023-04-01T04:21:06;8.20;;;3.22;;
78796;SDS011;68145;52.514;13.460;2023-04-01T04:23:32;7.38;;;3.38;;
78796;SDS011;68145;52.514;13.460;2023-04-01T04:28:25;6.47;;;3.35;;
78796;SDS011;68145;52.514;13.460;2023-04-01T04:30:51;6.57;;;2.60;;
78796;SDS011;68145;52.514;13.460;2023-04-01T04:33:17;5.95;;;3.45;;
78796;SDS011;68145;52.514;13.460;2023-04-01T04:35:43;5.70;;;3.17;;
78796;SDS011;68145;52.514;13.460;2023-04-01T04:38:09;6.32;;;3.08;;
78796;SDS011;68145;52.514;13.460;2023-04-01T04:40:36;5.88;;;3.03;;
78796;SDS011;68145;52.514;13.460;2023-04-01T04:43:02;7.35;;;3.90;;
78796;SDS011;68145;52.514;13.460;2023-04-01T04:45:29;8.75;;;3.30;;
78796;SDS011;68145;52.514;13.460;2023-04-01T04:47:55;7.82;;;3.42;;
78796;SDS011;68145;52.514;13.460;2023-04-01T04:50:22;6.45;;;3.38;;
78796;SDS011;68145;52.514;13.460;2023-04-01T04:52:48;10.70;;;4.50;;
78796;SDS011;68145;52.514;13.460;2023-04-01T04:55:14;6.25;;;3.50;;
78796;SDS011;68145;52.514;13.460;2023-04-01T04:57:40;6.35;;;3.60;;
78796;SDS011;68145;52.514;13.460;2023-04-01T05:00:07;6.65;;;3.97;;
78796;SDS011;68145;52.514;13.460;2023-04-01T05:02:35;7.25;;;3.28;;
78796;SDS011;68145;52.514;13.460;2023-04-01T05:05:01;7.25;;;3.28;;
78796;SDS011;68145;52.514;13.460;2023-04-01T05:07:27;7.10;;;3.58;;
78796;SDS011;68145;52.514;13.460;2023-04-01T05:09:53;6.18;;;3.80;;
78796;SDS011;68145;52.514;13.460;2023-04-01T05:12:19;6.50;;;3.78;;
78796;SDS011;68145;52.514;13.460;2023-04-01T05:14:46;7.57;;;3.80;;
78796;SDS011;68145;52.514;13.460;2023-04-01T05:17:12;6.78;;;4.13;;
78796;SDS011;68145;52.514;13.460;2023-04-01T05:19:39;8.00;;;3.88;;
78796;SDS011;68145;52.514;13.460;2023-04-01T05:22:05;7.68;;;3.28;;
78796;SDS011;68145;52.514;13.460;2023-04-01T05:24:31;7.65;;;3.55;;
78796;SDS011;68145;52.514;13.460;2023-04-01T05:26:58;5.72;;;3.42;;
78796;SDS011;68145;52.514;13.460;2023-04-01T05:29:25;6.93;;;3.33;;
78796;SDS011;68145;52.514;13.460;2023-04-01T05:31:51;5.68;;;3.90;;
78796;SDS011;68145;52.514;13.460;2023-04-01T05:34:17;7.93;;;3.88;;
78796;SDS011;68145;52.514;13.460;2023-04-01T05:36:43;6.45;;;4.10;;
78796;SDS011;68145;52.514;13.460;2023-04-01T05:39:09;5.50;;;3.20;;
78796;SDS011;68145;52.514;13.460;2023-04-01T05:41:36;8.27;;;3.53;;
78796;SDS011;68145;52.514;13.460;2023-04-01T05:44:02;11.88;;;4.47;;
78796;SDS011;68145;52.514;13.460;2023-04-01T05:46:28;8.02;;;3.50;;
78796;SDS011;68145;52.514;13.460;2023-04-01T05:48:54;9.07;;;3.70;;
78796;SDS011;68145;52.514;13.460;2023-04-01T05:51:20;10.07;;;4.95;;
78796;SDS011;68145;52.514;13.460;2023-04-01T05:53:46;9.82;;;4.05;;
78796;SDS011;68145;52.514;13.460;2023-04-01T05:56:12;7.05;;;4.10;;
78796;SDS011;68145;52.514;13.460;2023-04-01T05:58:39;8.27;;;3.60;;
78796;SDS011;68145;52.514;13.460;2023-04-01T06:01:09;10.85;;;4.85;;
78796;SDS011;68145;52.514;13.460;2023-04-01T06:03:35;9.93;;;5.13;;
78796;SDS011;68145;52.514;13.460;2023-04-01T06:06:02;10.27;;;4.97;;
78796;SDS011;68145;52.514;13.460;2023-04-01T06:08:30;13.15;;;5.13;;
78796;SDS011;68145;52.514;13.460;2023-04-01T06:21:39;6.80;;;4.72;;
78796;SDS011;68145;52.514;13.460;2023-04-01T06:26:43;6.38;;;4.30;;
78796;SDS011;68145;52.514;13.460;2023-04-01T06:31:47;10.60;;;5.20;;
78796;SDS011;68145;52.514;13.460;2023-04-01T06:37:04;7.50;;;4.00;;
78796;SDS011;68145;52.514;13.460;2023-04-01T06:39:56;8.73;;;4.72;;
78796;SDS011;68145;52.514;13.460;2023-04-01T06:55:37;8.45;;;5.35;;
78796;SDS011;68145;52.514;13.460;2023-04-01T06:58:06;8.13;;;5.22;;
78796;SDS011;68145;52.514;13.460;2023-04-01T07:00:37;9.38;;;4.95;;
78796;SDS011;68145;52.514;13.460;2023-04-01T07:05:46;9.95;;;5.40;;
78796;SDS011;68145;52.514;13.460;2023-04-01T07:08:15;10.40;;;6.43;;
78796;SDS011;68145;52.514;13.460;2023-04-01T07:10:45;10.57;;;6.70;;
78796;SDS011;68145;52.514;13.460;2023-04-01T07:13:18;9.27;;;5.82;;
78796;SDS011;68145;52.514;13.460;2023-04-01T07:15:54;11.98;;;6.13;;
78796;SDS011;68145;52.514;13.460;2023-04-01T07:18:22;11.35;;;6.53;;
78796;SDS011;68145;52.514;13.460;2023-04-01T07:20:51;9.43;;;6.10;;
78796;SDS011;68145;52.514;13.460;2023-04-01T07:25:48;9.60;;;6.88;;
78796;SDS011;68145;52.514;13.460;2023-04-01T07:28:17;11.82;;;6.57;;
78796;SDS011;68145;52.514;13.460;2023-04-01T07:33:39;12.70;;;7.95;;
78796;SDS011;68145;52.514;13.460;2023-04-01T07:41:05;8.68;;;6.22;;
78796;SDS011;68145;52.514;13.460;2023-04-01T07:46:11;12.73;;;6.55;;
78796;SDS011;68145;52.514;13.460;2023-04-01T07:48:51;8.80;;;5.82;;
78796;SDS011;68145;52.514;13.460;2023-04-01T07:51:27;12.15;;;5.72;;
78796;SDS011;68145;52.514;13.460;2023-04-01T08:01:38;10.30;;;7.50;;
78796;SDS011;68145;52.514;13.460;2023-04-01T08:04:22;10.40;;;5.82;;
78796;SDS011;68145;52.514;13.460;2023-04-01T08:06:54;8.90;;;5.40;;
78796;SDS011;68145;52.514;13.460;2023-04-01T08:17:23;9.60;;;5.88;;
78796;SDS011;68145;52.514;13.460;2023-04-01T08:22:29;5.80;;;3.75;;
78796;SDS011;68145;52.514;13.460;2023-04-01T08:24:57;5.88;;;3.50;;
78796;SDS011;68145;52.514;13.460;2023-04-01T08:30:19;10.95;;;5.57;;
78796;SDS011;68145;52.514;13.460;2023-04-01T08:32:51;9.60;;;5.53;;
78796;SDS011;68145;52.514;13.460;2023-04-01T08:35:38;12.52;;;6.72;;
78796;SDS011;68145;52.514;13.460;2023-04-01T08:40:39;13.30;;;6.95;;
78796;SDS011;68145;52.514;13.460;2023-04-01T08:46:19;10.23;;;6.57;;
78796;SDS011;68145;52.514;13.460;2023-04-01T08:49:11;12.52;;;7.30;;
78796;SDS011;68145;52.514;13.460;2023-04-01T08:54:15;12.95;;;7.68;;
78796;SDS011;68145;52.514;13.460;2023-04-01T08:57:19;15.55;;;8.50;;
78796;SDS011;68145;52.514;13.460;2023-04-01T09:00:20;12.75;;;7.75;;
78796;SDS011;68145;52.514;13.460;2023-04-01T09:15:23;11.15;;;6.82;;
78796;SDS011;68145;52.514;13.460;2023-04-01T09:18:12;10.75;;;7.38;;
78796;SDS011;68145;52.514;13.460;2023-04-01T09:51:37;16.77;;;9.73;;
78796;SDS011;68145;52.514;13.460;2023-04-01T09:55:06;19.10;;;10.10;;
78796;SDS011;68145;52.514;13.460;2023-04-01T10:23:31;11.52;;;7.75;;
78796;SDS011;68145;52.514;13.460;2023-04-01T10:36:58;16.02;;;11.05;;
78796;SDS011;68145;52.514;13.460;2023-04-01T10:39:28;12.80;;;8.70;;
78796;SDS011;68145;52.514;13.460;2023-04-01T11:39:41;4.80;;;3.65;;
78796;SDS011;68145;52.514;13.460;2023-04-01T11:42:06;5.20;;;3.58;;
78796;SDS011;68145;52.514;13.460;2023-04-01T11:44:36;5.68;;;4.03;;
78796;SDS011;68145;52.514;13.460;2023-04-01T11:47:12;5.78;;;4.43;;
78796;SDS011;68145;52.514;13.460;2023-04-01T11:54:58;4.85;;;3.60;;
78796;SDS011;68145;52.514;13.460;2023-04-01T11:57:35;4.68;;;3.90;;
78796;SDS011;68145;52.514;13.460;2023-04-01T12:05:40;5.60;;;4.32;;
78796;SDS011;68145;52.514;13.460;2023-04-01T12:08:10;5.95;;;4.40;;
78796;SDS011;68145;52.514;13.460;2023-04-01T12:21:36;8.75;;;6.68;;
78796;SDS011;68145;52.514;13.460;2023-04-01T12:31:42;7.10;;;5.88;;
78796;SDS011;68145;52.514;13.460;2023-04-01T12:39:48;8.65;;;7.43;;
78796;SDS011;68145;52.514;13.460;2023-04-01T12:52:51;5.75;;;4.93;;
78796;SDS011;68145;52.514;13.460;2023-04-01T13:00:51;7.07;;;5.72;;
78796;SDS011;68145;52.514;13.460;2023-04-01T13:08:35;9.07;;;6.30;;
78796;SDS011;68145;52.514;13.460;2023-04-01T13:11:09;8.30;;;6.55;;
78796;SDS011;68145;52.514;13.460;2023-04-01T13:16:19;9.73;;;7.90;;
78796;SDS011;68145;52.514;13.460;2023-04-01T13:21:20;9.88;;;7.90;;
78796;SDS011;68145;52.514;13.460;2023-04-01T13:36:36;9.93;;;6.05;;
78796;SDS011;68145;52.514;13.460;2023-04-01T13:44:20;14.50;;;8.98;;
78796;SDS011;68145;52.514;13.460;2023-04-01T13:46:59;9.88;;;7.25;;
78796;SDS011;68145;52.514;13.460;2023-04-01T13:57:29;10.30;;;8.02;;
78796;SDS011;68145;52.514;13.460;2023-04-01T14:13:34;10.68;;;8.02;;
78796;SDS011;68145;52.514;13.460;2023-04-01T14:23:46;31.33;;;20.02;;
78796;SDS011;68145;52.514;13.460;2023-04-01T14:26:19;19.77;;;14.20;;
78796;SDS011;68145;52.514;13.460;2023-04-01T14:47:08;16.25;;;10.00;;
78796;SDS011;68145;52.514;13.460;2023-04-01T14:49:37;24.40;;;15.43;;
78796;SDS011;68145;52.514;13.460;2023-04-01T14:52:48;16.13;;;11.77;;
78796;SDS011;68145;52.514;13.460;2023-04-01T14:54:54;25.05;;;15.88;;
78796;SDS011;68145;52.514;13.460;2023-04-01T14:57:33;14.68;;;10.02;;
78796;SDS011;68145;52.514;13.460;2023-04-01T15:07:33;16.73;;;11.80;;
78796;SDS011;68145;52.514;13.460;2023-04-01T15:12:52;17.85;;;12.98;;
78796;SDS011;68145;52.514;13.460;2023-04-01T15:15:41;13.38;;;10.18;;
78796;SDS011;68145;52.514;13.460;2023-04-01T15:18:18;14.18;;;10.48;;
78796;SDS011;68145;52.514;13.460;2023-04-01T15:28:39;13.18;;;8.75;;
78796;SDS011;68145;52.514;13.460;2023-04-01T15:36:35;30.42;;;19.10;;
78796;SDS011;68145;52.514;13.460;2023-04-01T15:44:33;36.58;;;23.35;;
78796;SDS011;68145;52.514;13.460;2023-04-01T15:47:07;24.33;;;14.80;;
78796;SDS011;68145;52.514;13.460;2023-04-01T15:49:43;7.63;;;5.05;;
78796;SDS011;68145;52.514;13.460;2023-04-01T16:00:27;16.08;;;10.57;;
78796;SDS011;68145;52.514;13.460;2023-04-01T16:05:43;13.48;;;10.63;;
78796;SDS011;68145;52.514;13.460;2023-04-01T16:23:50;10.23;;;8.15;;
78796;SDS011;68145;52.514;13.460;2023-04-01T16:29:08;15.25;;;9.85;;
78796;SDS011;68145;52.514;13.460;2023-04-01T16:31:43;14.00;;;8.85;;
78796;SDS011;68145;52.514;13.460;2023-04-01T16:39:44;16.88;;;12.05;;
78796;SDS011;68145;52.514;13.460;2023-04-01T16:47:23;9.85;;;7.68;;
78796;SDS011;68145;52.514;13.460;2023-04-01T16:49:54;20.85;;;13.88;;
78796;SDS011;68145;52.514;13.460;2023-04-01T16:52:34;24.42;;;16.17;;
78796;SDS011;68145;52.514;13.460;2023-04-01T16:55:12;19.20;;;12.25;;
78796;SDS011;68145;52.514;13.460;2023-04-01T17:02:42;13.13;;;9.73;;
78796;SDS011;68145;52.514;13.460;2023-04-01T17:05:10;17.67;;;12.45;;
78796;SDS011;68145;52.514;13.460;2023-04-01T17:08:01;15.85;;;12.55;;
78796;SDS011;68145;52.514;13.460;2023-04-01T17:23:13;34.92;;;23.80;;
78796;SDS011;68145;52.514;13.460;2023-04-01T17:30:49;13.57;;;9.27;;
78796;SDS011;68145;52.514;13.460;2023-04-01T17:43:58;29.00;;;19.40;;
78796;SDS011;68145;52.514;13.460;2023-04-01T17:51:40;22.52;;;15.07;;
78796;SDS011;68145;52.514;13.460;2023-04-01T18:01:55;23.70;;;15.10;;
78796;SDS011;68145;52.514;13.460;2023-04-01T18:05:11;38.85;;;24.20;;
78796;SDS011;68145;52.514;13.460;2023-04-01T18:10:14;25.08;;;17.50;;
78796;SDS011;68145;52.514;13.460;2023-04-01T18:15:31;45.15;;;29.60;;
78796;SDS011;68145;52.514;13.460;2023-04-01T18:23:02;10.85;;;7.70;;
78796;SDS011;68145;52.514;13.460;2023-04-01T18:28:16;22.50;;;14.52;;
78796;SDS011;68145;52.514;13.460;2023-04-01T18:30:43;18.30;;;11.30;;
78796;SDS011;68145;52.514;13.460;2023-04-01T18:38:45;16.70;;;13.90;;
78796;SDS011;68145;52.514;13.460;2023-04-01T18:41:19;28.67;;;22.55;;
78796;SDS011;68145;52.514;13.460;2023-04-01T18:51:44;27.02;;;13.32;;
78796;SDS011;68145;52.514;13.460;2023-04-01T18:54:29;14.35;;;9.38;;
78796;SDS011;68145;52.514;13.460;2023-04-01T18:57:11;20.98;;;13.52;;
78796;SDS011;68145;52.514;13.460;2023-04-01T19:00:03;23.50;;;15.50;;
78796;SDS011;68145;52.514;13.460;2023-04-01T19:02:36;17.65;;;10.00;;
78796;SDS011;68145;52.514;13.460;2023-04-01T19:18:02;54.85;;;38.10;;
78796;SDS011;68145;52.514;13.460;2023-04-01T19:20:34;13.88;;;9.38;;
78796;SDS011;68145;52.514;13.460;2023-04-01T19:25:53;16.60;;;11.00;;
78796;SDS011;68145;52.514;13.460;2023-04-01T19:30:54;44.75;;;27.17;;
78796;SDS011;68145;52.514;13.460;2023-04-01T19:36:07;33.85;;;22.02;;
78796;SDS011;68145;52.514;13.460;2023-04-01T19:38:39;55.55;;;35.70;;
78796;SDS011;68145;52.514;13.460;2023-04-01T19:43:47;19.35;;;13.18;;
78796;SDS011;68145;52.514;13.460;2023-04-01T19:51:28;41.83;;;30.05;;
78796;SDS011;68145;52.514;13.460;2023-04-01T19:56:30;19.58;;;10.80;;
78796;SDS011;68145;52.514;13.460;2023-04-01T19:59:03;17.05;;;11.63;;
78796;SDS011;68145;52.514;13.460;2023-04-01T20:01:35;24.90;;;17.33;;
78796;SDS011;68145;52.514;13.460;2023-04-01T20:04:14;35.63;;;22.80;;
78796;SDS011;68145;52.514;13.460;2023-04-01T20:14:40;71.18;;;42.55;;
78796;SDS011;68145;52.514;13.460;2023-04-01T20:19:43;34.42;;;22.52;;
78796;SDS011;68145;52.514;13.460;2023-04-01T20:22:17;30.95;;;20.15;;
78796;SDS011;68145;52.514;13.460;2023-04-01T20:24:50;25.77;;;15.52;;
78796;SDS011;68145;52.514;13.460;2023-04-01T20:27:18;33.70;;;23.83;;
78796;SDS011;68145;52.514;13.460;2023-04-01T20:34:59;35.70;;;22.92;;
78796;SDS011;68145;52.514;13.460;2023-04-01T20:37:35;19.25;;;13.52;;
78796;SDS011;68145;52.514;13.460;2023-04-01T20:45:17;21.73;;;13.50;;
78796;SDS011;68145;52.514;13.460;2023-04-01T20:48:02;20.55;;;11.93;;
78796;SDS011;68145;52.514;13.460;2023-04-01T20:53:11;26.45;;;17.27;;
78796;SDS011;68145;52.514;13.460;2023-04-01T20:58:12;16.52;;;10.52;;
78796;SDS011;68145;52.514;13.460;2023-04-01T21:03:57;26.17;;;12.65;;
78796;SDS011;68145;52.514;13.460;2023-04-01T21:22:01;25.20;;;15.55;;
78796;SDS011;68145;52.514;13.460;2023-04-01T21:25:14;25.65;;;17.10;;
78796;SDS011;68145;52.514;13.460;2023-04-01T21:32:58;26.75;;;16.10;;
78796;SDS011;68145;52.514;13.460;2023-04-01T21:43:10;9.25;;;6.22;;
78796;SDS011;68145;52.514;13.460;2023-04-01T21:56:21;33.42;;;21.67;;
78796;SDS011;68145;52.514;13.460;2023-04-01T22:11:58;41.05;;;24.17;;
78796;SDS011;68145;52.514;13.460;2023-04-01T22:14:33;17.42;;;11.75;;
78796;SDS011;68145;52.514;13.460;2023-04-01T22:17:10;24.75;;;15.18;;
78796;SDS011;68145;52.514;13.460;2023-04-01T22:20:27;24.42;;;13.77;;
78796;SDS011;68145;52.514;13.460;2023-04-01T22:22:46;18.77;;;9.88;;
78796;SDS011;68145;52.514;13.460;2023-04-01T22:25:18;34.10;;;19.15;;
78796;SDS011;68145;52.514;13.460;2023-04-01T22:27:58;27.52;;;18.60;;
78796;SDS011;68145;52.514;13.460;2023-04-01T22:30:27;20.20;;;13.60;;
78796;SDS011;68145;52.514;13.460;2023-04-01T22:33:05;13.65;;;9.05;;
78796;SDS011;68145;52.514;13.460;2023-04-01T22:43:27;28.67;;;18.88;;
78796;SDS011;68145;52.514;13.460;2023-04-01T22:48:29;24.40;;;17.45;;
78796;SDS011;68145;52.514;13.460;2023-04-01T22:51:20;17.40;;;10.85;;
78796;SDS011;68145;52.514;13.460;2023-04-01T22:54:02;13.27;;;8.40;;
78796;SDS011;68145;52.514;13.460;2023-04-01T22:56:32;20.00;;;11.13;;
78796;SDS011;68145;52.514;13.460;2023-04-01T22:59:48;20.65;;;11.82;;
78796;SDS011;68145;52.514;13.460;2023-04-01T23:01:57;19.48;;;12.98;;
78796;SDS011;68145;52.514;13.460;2023-04-01T23:04:29;21.83;;;13.18;;
78796;SDS011;68145;52.514;13.460;2023-04-01T23:07:00;17.15;;;12.20;;
78796;SDS011;68145;52.514;13.460;2023-04-01T23:09:28;19.02;;;11.02;;
78796;SDS011;68145;52.514;13.460;2023-04-01T23:12:02;8.75;;;5.88;;
78796;SDS011;68145;52.514;13.460;2023-04-01T23:14:41;12.85;;;7.88;;
78796;SDS011;68145;52.514;13.460;2023-04-01T23:17:34;13.68;;;7.38;;
78796;SDS011;68145;52.514;13.460;2023-04-01T23:23:05;9.68;;;5.90;;
78796;SDS011;68145;52.514;13.460;2023-04-01T23:25:27;8.80;;;4.85;;
78796;SDS011;68145;52.514;13.460;2023-04-01T23:28:05;7.93;;;4.75;;
78796;SDS011;68145;52.514;13.460;2023-04-01T23:35:46;9.48;;;5.80;;
78796;SDS011;68145;52.514;13.460;2023-04-01T23:38:12;15.55;;;11.02;;
78796;SDS011;68145;52.514;13.460;2023-04-01T23:40:39;9.20;;;5.13;;
78796;SDS011;68145;52.514;13.460;2023-04-01T23:44:07;9.98;;;6.05;;
78796;SDS011;68145;52.514;13.460;2023-04-01T23:46:01;40.33;;;21.90;;
78796;SDS011;68145;52.514;13.460;2023-04-01T23:48:30;9.27;;;4.75;;
78796;SDS011;68145;52.514;13.460;2023-04-01T23:50:58;10.55;;;5.70;;
78796;SDS011;68145;52.514;13.460;2023-04-01T23:53:33;8.63;;;6.10;;
78796;SDS011;68145;52.514;13.460;2023-04-01T23:56:00;14.50;;;7.50;;
78796;SDS011;68145;52.514;13.460;2023-04-01T23:58:48;11.23;;;7.18;;
